Ocean View, NJ

7:56 AM EST on December 13, 2017 (GMT -0500)
Ocean View Resort | | Change Station
Active Advisory: Wind Advisory

Elev 0 ft 39.18 °N, 74.73 °W | Updated 19 seconds ago

Partly Cloudy
Partly Cloudy
23.5 °F
Feels Like 7 °F
N
25.9
Wind Variable Wind from West
Gusts 30.0 mph

Today
High -- | Low -- °F
--% Chance of Precip.
Yesterday
High -- | Low -- °F
Precip. -- in
Pressure 29.73 in
Visibility 10.0 miles
Clouds Mostly Cloudy 4900 ft
Mostly Cloudy 6000 ft
Windchill 7 °F
Dew Point -8 °F
Humidity 24%
Rainfall 0.00 in
Snow Depth Not available.
7:09 AM 4:36 PM
Waning Crescent, 19% visible
METAR KWWD 131155Z AUTO 29013G28KT 10SM BKN049 BKN060 M05/M13 A2972 RMK AO2 PK WND 28033/1118 SLP068 7//// T10501133 11039 21050 53015 FZRANO
Pressure 29.73 in
Visibility 10.0 miles
Clouds Mostly Cloudy 4900 ft
Mostly Cloudy 6000 ft
Windchill 7 °F
Dew Point -8 °F
Humidity 24%
Rainfall 0.00 in
Snow Depth Not available.
7:09 AM 4:36 PM
Waning Crescent, 19% visible
METAR KWWD 131155Z AUTO 29013G28KT 10SM BKN049 BKN060 M05/M13 A2972 RMK AO2 PK WND 28033/1118 SLP068 7//// T10501133 11039 21050 53015 FZRANO

Get Your Daily Forecast Email!

Thanks for signing up!

Be on the lookout for a verification email in your inbox.

You'll start receiving severe weather alerts in your inbox..

×

10-Day Weather Forecast

Almanac

Astronomy

Dec. 13, 2017 Rise Set
Actual Time
Civil Twilight
Nautical Twilight
Astronomical Twilight
Moon
Length of Visible Light
Length of Day
Tomorrow will be .
, % of the Moon is Illuminated

Today's Extremes

State Highs State Lows

Community

WunderPhotos

Category 6

Welcome to Category 6. This is the collective home for Weather Underground's featured writeups by Dr. Jeff Masters (right), Bob Henson (left), Chris Burt, and other regular contributors.

Nearby

Air Quality

  Air Quality AQ Index Pollutant
Not available.

Snow Depth

Station Depth Elevation

Earthquake Activity

City Distance Mag. Time & Date
Minimum magnitude displayed is 2.5.

Coastal Water Temperatures

Place Temperature

Stations

Nearby Weather Stations

Station Location Temp. Windchill Dew Point Humidity Wind Precip. Elev Updated Type
                   

Watches & Warnings

Wind Advisory
Issued: 3:46 AM EST Dec. 13, 2017 – National Weather Service

... Wind Advisory remains in effect until 10 am EST this morning...

* winds... west 15 to 25 mph with gusts up to 45 mph.

* Timing... wind gusts of 45 to 50 mph are occuring now in spots
and may continue occasionally through this morning.

* Impacts... gusty winds will blow around unsecured objects. Tree
limbs could be blown down and a few power outages may result.

Precautionary/preparedness actions...

A Wind Advisory means that very windy conditions are expected.
Winds this strong can make driving difficult... especially for
high profile vehicles. Use extra caution. Light-weight outdoor
objects such as patio furniture and garbage cans should be
secured.



Cms